Time;durP1;ratioP1;P1;durP2;ratioP2;P2;SDS_P1;SDS_P2;PMS_P1;PMS_P2;Temp;Humidity;BMP_temperature;BMP_pressure;BME280_temperature;BME280_humidity;BME280_pressure;Samples;Min_cycle;Max_cycle;Signal;HPM_P1;HPM_P2
2023/12/05 00:02:25;;;;;;;;;;;;;;;;;;2215471;58;2502;-23
2023/12/05 00:04:55;;;;;;;;;;;;;;;;;;2215893;66;2309;-23
2023/12/05 00:07:27;;;;;;;;;;;;;;;;;;2212106;58;2304;-23
2023/12/05 00:09:59;;;;;;;;;;;;;;;;;;2215888;66;2242;-23
2023/12/05 00:12:31;;;;;;;;;;;;;;;;;;2216554;58;2345;-23
2023/12/05 00:15:03;;;;;;;;;;;;;;;;;;2213826;59;2590;-23
2023/12/05 00:17:34;;;;;;;;;;;;;;;;;;2214975;58;2473;-23
2023/12/05 00:20:05;;;;;;;;;;;;;;;;;;2215418;58;1916;-23
2023/12/05 00:22:36;;;;;;;;;;;;;;;;;;2214992;66;2012;-23
2023/12/05 00:25:07;;;;;;;;;;;;;;;;;;2215325;58;2001;-23
2023/12/05 00:27:37;;;;;;;;;;;;;;;;;;2212821;58;2346;-23
2023/12/05 00:30:08;;;;;;;;;;;;;;;;;;2212616;58;2322;-23
2023/12/05 00:32:38;;;;;;;;;;;;;;;;;;2213646;58;2174;-23
2023/12/05 00:35:08;;;;;;;;;;;;;;;;;;2213785;58;2307;-23
2023/12/05 00:37:38;;;;;;;;;;;;;;;;;;2213096;58;2681;-23
2023/12/05 00:40:09;;;;;;;;;;;;;;;;;;2213099;58;2273;-23
2023/12/05 00:42:39;;;;;;;;;;;;;;;;;;2212781;58;2844;-23
2023/12/05 00:45:12;;;;;;;;;;;;;;;;;;2212722;58;2807;-23
2023/12/05 00:47:42;;;;;;;;;;;;;;;;;;2212958;58;2782;-23
2023/12/05 00:50:12;;;;;;;;;;;;;;;;;;2213264;58;2195;-23
2023/12/05 00:52:42;;;;;;;;;;;;;;;;;;2213964;58;2534;-23
2023/12/05 00:55:13;;;;;;;;;;;;;;;;;;2214373;58;2192;-23
2023/12/05 00:57:43;;;;;;;;;;;;;;;;;;2213177;58;2429;-23
2023/12/05 01:00:13;;;;;;;;;;;;;;;;;;2213273;58;2863;-23
2023/12/05 01:02:44;;;;;;;;;;;;;;;;;;2213789;58;2276;-23
2023/12/05 01:05:14;;;;;;;;;;;;;;;;;;2215559;58;2026;-23
2023/12/05 01:07:44;;;;;;;;;;;;;;;;;;2215819;58;1726;-23
2023/12/05 01:10:14;;;;;;;;;;;;;;;;;;2215326;66;2325;-23
2023/12/05 01:12:45;;;;;;;;;;;;;;;;;;2216279;66;1798;-23
2023/12/05 01:15:16;;;;;;;;;;;;;;;;;;2216756;58;1860;-23
2023/12/05 01:17:46;;;;;;;;;;;;;;;;;;2215967;58;2608;-23
2023/12/05 01:20:16;;;;;;;;;;;;;;;;;;2213566;59;2411;-23
2023/12/05 01:22:46;;;;;;;;;;;;;;;;;;2213161;58;1919;-23
2023/12/05 01:25:17;;;;;;;;;;;;;;;;;;2213404;66;2319;-23
2023/12/05 01:27:47;;;;;;;;;;;;;;;;;;2216721;58;2115;-23
2023/12/05 01:30:17;;;;;;;;;;;;;;;;;;2214569;58;2680;-23
2023/12/05 01:32:48;;;;;;;;;;;;;;;;;;2215909;58;2269;-23
2023/12/05 01:35:18;;;;;;;;;;;;;;;;;;2215446;66;1902;-23
2023/12/05 01:37:48;;;;;;;;;;;;;;;;;;2215815;58;2335;-23
2023/12/05 01:40:18;;;;;;;;;;;;;;;;;;2215692;66;1731;-23
2023/12/05 01:42:49;;;;;;;;;;;;;;;;;;2216839;66;1938;-23
2023/12/05 01:45:19;;;;;;;;;;;;;;;;;;2215163;66;2651;-23
2023/12/05 01:47:49;;;;;;;;;;;;;;;;;;2218633;66;1771;-23
2023/12/05 01:50:22;;;;;;;;;;;;;;;;;;2216343;66;1927;-23
2023/12/05 01:52:54;;;;;;;;;;;;;;;;;;2216219;66;1880;-23
2023/12/05 01:55:26;;;;;;;;;;;;;;;;;;2215232;66;2028;-23
2023/12/05 01:57:57;;;;;;;;;;;;;;;;;;2215429;66;2449;-23
2023/12/05 02:00:27;;;;;;;;;;;;;;;;;;2215115;66;2240;-23
2023/12/05 02:02:58;;;;;;;;;;;;;;;;;;2215989;66;2422;-23
2023/12/05 02:05:28;;;;;;;;;;;;;;;;;;2215021;58;2437;-23
2023/12/05 02:07:59;;;;;;;;;;;;;;;;;;2214981;58;1804;-23
2023/12/05 02:10:29;;;;;;;;;;;;;;;;;;2215090;66;2545;-23
2023/12/05 02:13:00;;;;;;;;;;;;;;;;;;2214740;66;2626;-23
2023/12/05 02:15:30;;;;;;;;;;;;;;;;;;2216034;58;1835;-23
2023/12/05 02:18:05;;;;;;;;;;;;;;;;;;2215865;58;1840;-23
2023/12/05 02:20:54;;;;;;;;;;;;;;;;;;2215892;66;1761;-23
2023/12/05 02:23:43;;;;;;;;;;;;;;;;;;2216004;66;2506;-23
2023/12/05 02:26:22;;;;;;;;;;;;;;;;;;2215513;66;2362;-23
2023/12/05 02:28:53;;;;;;;;;;;;;;;;;;2215863;58;2698;-23
2023/12/05 02:31:23;;;;;;;;;;;;;;;;;;2215162;58;2229;-23
2023/12/05 02:33:53;;;;;;;;;;;;;;;;;;2215951;58;2434;-23
2023/12/05 02:36:42;;;;;;;;;;;;;;;;;;2215457;58;2005;-23
2023/12/05 02:39:31;;;;;;;;;;;;;;;;;;2214635;66;2278;-23
2023/12/05 02:42:02;;;;;;;;;;;;;;;;;;2215189;66;1780;-23
2023/12/05 02:44:37;;;;;;;;;;;;;;;;;;2215568;66;2667;-23
2023/12/05 02:47:08;;;;;;;;;;;;;;;;;;2214659;66;2899;-23
2023/12/05 02:49:38;;;;;;;;;;;;;;;;;;2217838;58;2404;-23
2023/12/05 02:52:09;;;;;;;;;;;;;;;;;;2215283;66;1976;-23
2023/12/05 02:54:39;;;;;;;;;;;;;;;;;;2216146;66;2365;-23
2023/12/05 02:57:10;;;;;;;;;;;;;;;;;;2215530;66;2377;-22
2023/12/05 02:59:40;;;;;;;;;;;;;;;;;;2215050;66;2364;-23
2023/12/05 03:02:10;;;;;;;;;;;;;;;;;;2215045;58;2265;-23
2023/12/05 03:04:41;;;;;;;;;;;;;;;;;;2215461;58;1928;-23
2023/12/05 03:07:11;;;;;;;;;;;;;;;;;;2215671;58;1823;-23
2023/12/05 03:09:41;;;;;;;;;;;;;;;;;;2215875;59;1667;-23
2023/12/05 03:12:11;;;;;;;;;;;;;;;;;;2215569;59;1766;-23
2023/12/05 03:14:42;;;;;;;;;;;;;;;;;;2217671;58;2549;-22
2023/12/05 03:17:12;;;;;;;;;;;;;;;;;;2215929;58;2133;-23
2023/12/05 03:19:42;;;;;;;;;;;;;;;;;;2215990;58;2487;-23
2023/12/05 03:22:12;;;;;;;;;;;;;;;;;;2216112;59;1662;-22
2023/12/05 03:24:43;;;;;;;;;;;;;;;;;;2215877;66;2017;-22
2023/12/05 03:27:13;;;;;;;;;;;;;;;;;;2214425;59;2645;-22
2023/12/05 03:29:43;;;;;;;;;;;;;;;;;;2215748;58;2324;-22
2023/12/05 03:32:13;;;;;;;;;;;;;;;;;;2216110;58;2091;-22
2023/12/05 03:34:46;;;;;;;;;;;;;;;;;;2215682;66;1979;-22
2023/12/05 03:37:16;;;;;;;;;;;;;;;;;;2215836;66;1788;-22
2023/12/05 03:39:46;;;;;;;;;;;;;;;;;;2216064;66;1997;-23
2023/12/05 03:42:16;;;;;;;;;;;;;;;;;;2215299;66;2064;-22
2023/12/05 03:44:47;;;;;;;;;;;;;;;;;;2215816;66;2255;-22
2023/12/05 03:47:17;;;;;;;;;;;;;;;;;;2214534;59;2459;-22
2023/12/05 03:49:47;;;;;;;;;;;;;;;;;;2215154;66;1782;-22
2023/12/05 03:52:17;;;;;;;;;;;;;;;;;;2215354;66;1878;-22
2023/12/05 03:54:48;;;;;;;;;;;;;;;;;;2215564;66;1906;-23
2023/12/05 03:57:18;;;;;;;;;;;;;;;;;;2217654;59;2243;-22
2023/12/05 03:59:48;;;;;;;;;;;;;;;;;;2215512;58;2050;-23
2023/12/05 04:02:18;;;;;;;;;;;;;;;;;;2214496;58;2342;-23
2023/12/05 04:04:48;;;;;;;;;;;;;;;;;;2216109;66;1995;-23
2023/12/05 04:07:19;;;;;;;;;;;;;;;;;;2215432;58;1794;-23
2023/12/05 04:09:49;;;;;;;;;;;;;;;;;;2216042;66;2113;-23
2023/12/05 04:12:19;;;;;;;;;;;;;;;;;;2214176;58;2481;-23
2023/12/05 04:14:50;;;;;;;;;;;;;;;;;;2215705;58;1779;-22
2023/12/05 04:17:20;;;;;;;;;;;;;;;;;;2215732;58;2734;-23
2023/12/05 04:19:50;;;;;;;;;;;;;;;;;;2216032;66;2046;-23
2023/12/05 04:22:20;;;;;;;;;;;;;;;;;;2215409;66;1837;-22
2023/12/05 04:24:50;;;;;;;;;;;;;;;;;;2215880;66;2366;-23
2023/12/05 04:27:21;;;;;;;;;;;;;;;;;;2215757;58;1855;-23
2023/12/05 04:29:51;;;;;;;;;;;;;;;;;;2215613;58;2108;-23
2023/12/05 04:32:21;;;;;;;;;;;;;;;;;;2215477;58;2433;-23
2023/12/05 04:34:51;;;;;;;;;;;;;;;;;;2216284;66;2157;-23
2023/12/05 04:37:21;;;;;;;;;;;;;;;;;;2215879;58;2209;-23
2023/12/05 04:39:52;;;;;;;;;;;;;;;;;;2214768;66;1886;-23
2023/12/05 04:42:22;;;;;;;;;;;;;;;;;;2215421;59;1809;-23
2023/12/05 04:44:52;;;;;;;;;;;;;;;;;;2218110;59;1963;-23
2023/12/05 04:47:22;;;;;;;;;;;;;;;;;;2214431;58;3001;-23
2023/12/05 04:49:53;;;;;;;;;;;;;;;;;;2215578;66;3173;-23
2023/12/05 04:52:23;;;;;;;;;;;;;;;;;;2215482;66;1991;-23
2023/12/05 04:54:53;;;;;;;;;;;;;;;;;;2215363;66;2240;-23
2023/12/05 04:57:23;;;;;;;;;;;;;;;;;;2214533;59;1606;-23
2023/12/05 04:59:53;;;;;;;;;;;;;;;;;;2215634;66;1650;-23
2023/12/05 05:02:24;;;;;;;;;;;;;;;;;;2212351;59;2609;-23
2023/12/05 05:04:54;;;;;;;;;;;;;;;;;;2215072;66;2042;-23
2023/12/05 05:07:25;;;;;;;;;;;;;;;;;;2214680;58;1972;-23
2023/12/05 05:09:55;;;;;;;;;;;;;;;;;;2215906;66;1895;-23
2023/12/05 05:12:26;;;;;;;;;;;;;;;;;;2214923;66;3289;-23
2023/12/05 05:14:57;;;;;;;;;;;;;;;;;;2215912;58;1803;-23
2023/12/05 05:17:27;;;;;;;;;;;;;;;;;;2215877;58;1831;-23
2023/12/05 05:19:57;;;;;;;;;;;;;;;;;;2198148;59;1890;-19
2023/12/05 05:22:27;;;;;;;;;;;;;;;;;;2191549;67;1345;-19
2023/12/05 05:24:57;;;;;;;;;;;;;;;;;;2194043;59;2438;-18
2023/12/05 05:27:28;;;;;;;;;;;;;;;;;;2196370;59;1453;-18
2023/12/05 05:29:58;;;;;;;;;;;;;;;;;;2189649;59;2263;-18
2023/12/05 05:32:28;;;;;;;;;;;;;;;;;;2190576;59;1394;-19
2023/12/05 05:34:59;;;;;;;;;;;;;;;;;;2194259;67;1279;-18
2023/12/05 05:37:29;;;;;;;;;;;;;;;;;;2190242;67;1197;-18
2023/12/05 05:39:59;;;;;;;;;;;;;;;;;;2189508;67;1547;-18
2023/12/05 05:42:29;;;;;;;;;;;;;;;;;;2189929;59;1492;-18
2023/12/05 05:45:00;;;;;;;;;;;;;;;;;;2190761;67;1931;-18
2023/12/05 05:47:31;;;;;;;;;;;;;;;;;;2189454;59;2313;-18
2023/12/05 05:50:01;;;;;;;;;;;;;;;;;;2189660;59;2684;-18
2023/12/05 05:52:32;;;;;;;;;;;;;;;;;;2190917;67;2253;-19
2023/12/05 05:55:02;;;;;;;;;;;;;;;;;;2190443;59;2572;-18
2023/12/05 05:57:33;;;;;;;;;;;;;;;;;;2190500;59;2595;-19
2023/12/05 06:00:04;;;;;;;;;;;;;;;;;;2190879;59;1777;-18
2023/12/05 06:02:34;;;;;;;;;;;;;;;;;;2190356;59;2464;-19
2023/12/05 06:05:05;;;;;;;;;;;;;;;;;;2190492;59;2427;-18
2023/12/05 06:07:35;;;;;;;;;;;;;;;;;;2190305;59;1832;-18
2023/12/05 06:10:06;;;;;;;;;;;;;;;;;;2193908;59;2815;-18
2023/12/05 06:12:36;;;;;;;;;;;;;;;;;;2192758;59;2677;-18
2023/12/05 06:15:07;;;;;;;;;;;;;;;;;;2190786;59;1880;-18
2023/12/05 06:17:37;;;;;;;;;;;;;;;;;;2194060;59;2179;-18
2023/12/05 06:20:08;;;;;;;;;;;;;;;;;;2194438;59;1866;-18
2023/12/05 06:22:38;;;;;;;;;;;;;;;;;;2190361;67;2552;-18
2023/12/05 06:25:09;;;;;;;;;;;;;;;;;;2190277;67;2315;-19
2023/12/05 06:27:39;;;;;;;;;;;;;;;;;;2190097;59;1968;-18
2023/12/05 06:30:10;;;;;;;;;;;;;;;;;;2191813;59;2211;-18
2023/12/05 06:32:40;;;;;;;;;;;;;;;;;;2189848;59;2350;-18
2023/12/05 06:35:10;;;;;;;;;;;;;;;;;;2191339;59;2486;-18
2023/12/05 06:37:41;;;;;;;;;;;;;;;;;;2193565;59;1793;-18
2023/12/05 06:40:11;;;;;;;;;;;;;;;;;;2190224;67;2186;-19
2023/12/05 06:42:41;;;;;;;;;;;;;;;;;;2189820;60;1988;-18
2023/12/05 06:45:12;;;;;;;;;;;;;;;;;;2189703;59;2755;-19
2023/12/05 06:47:42;;;;;;;;;;;;;;;;;;2189210;67;2089;-19
2023/12/05 06:50:12;;;;;;;;;;;;;;;;;;2202975;67;2850;-19
2023/12/05 06:52:43;;;;;;;;;;;;;;;;;;2191170;67;1840;-19
2023/12/05 06:55:13;;;;;;;;;;;;;;;;;;2204642;67;2364;-18
2023/12/05 06:57:44;;;;;;;;;;;;;;;;;;2190010;60;1714;-19
2023/12/05 07:00:14;;;;;;;;;;;;;;;;;;2191673;67;2431;-19
2023/12/05 07:02:44;;;;;;;;;;;;;;;;;;2191000;59;2390;-19
2023/12/05 07:05:15;;;;;;;;;;;;;;;;;;2190238;59;2052;-19
2023/12/05 07:07:45;;;;;;;;;;;;;;;;;;2191352;59;1863;-19
2023/12/05 07:10:15;;;;;;;;;;;;;;;;;;2189356;59;1916;-19
2023/12/05 07:12:46;;;;;;;;;;;;;;;;;;2190577;67;1871;-19
2023/12/05 07:15:16;;;;;;;;;;;;;;;;;;2189986;67;2060;-19
2023/12/05 07:17:46;;;;;;;;;;;;;;;;;;2191285;67;2451;-18
2023/12/05 07:20:16;;;;;;;;;;;;;;;;;;2190682;59;1891;-19
2023/12/05 07:22:47;;;;;;;;;;;;;;;;;;2190459;67;2332;-19
2023/12/05 07:25:17;;;;;;;;;;;;;;;;;;2189546;67;2720;-19
2023/12/05 07:27:47;;;;;;;;;;;;;;;;;;2190364;59;2665;-19
2023/12/05 07:30:17;;;;;;;;;;;;;;;;;;2189585;59;2458;-19
2023/12/05 07:32:48;;;;;;;;;;;;;;;;;;2190950;60;2000;-19
2023/12/05 07:35:18;;;;;;;;;;;;;;;;;;2190034;67;2365;-19
2023/12/05 07:37:49;;;;;;;;;;;;;;;;;;2190826;67;1792;-19
2023/12/05 07:40:19;;;;;;;;;;;;;;;;;;2190154;60;2418;-19
2023/12/05 07:42:49;;;;;;;;;;;;;;;;;;2194942;67;2608;-19
2023/12/05 07:45:20;;;;;;;;;;;;;;;;;;2190255;67;1961;-19
2023/12/05 07:47:50;;;;;;;;;;;;;;;;;;2190986;60;2163;-19
2023/12/05 07:50:20;;;;;;;;;;;;;;;;;;2189876;67;3001;-19
2023/12/05 07:52:51;;;;;;;;;;;;;;;;;;2188897;60;3075;-20
2023/12/05 07:55:21;;;;;;;;;;;;;;;;;;2189750;67;1757;-20
2023/12/05 07:57:51;;;;;;;;;;;;;;;;;;2190484;67;2390;-20
2023/12/05 08:00:22;;;;;;;;;;;;;;;;;;2188999;67;1893;-20
2023/12/05 08:02:52;;;;;;;;;;;;;;;;;;2189949;59;2263;-20
2023/12/05 08:05:22;;;;;;;;;;;;;;;;;;2190517;67;1951;-20
2023/12/05 08:07:53;;;;;;;;;;;;;;;;;;2191906;59;1840;-20
2023/12/05 08:10:23;;;;;;;;;;;;;;;;;;2189834;59;2137;-20
2023/12/05 08:12:53;;;;;;;;;;;;;;;;;;2190455;67;1851;-20
2023/12/05 08:15:23;;;;;;;;;;;;;;;;;;2190063;59;2356;-20
2023/12/05 08:17:54;;;;;;;;;;;;;;;;;;2190397;67;1881;-20
2023/12/05 08:20:24;;;;;;;;;;;;;;;;;;2190572;59;1945;-20
2023/12/05 08:22:54;;;;;;;;;;;;;;;;;;2189380;59;3055;-20
2023/12/05 08:25:24;;;;;;;;;;;;;;;;;;2193324;59;2287;-20
2023/12/05 08:27:55;;;;;;;;;;;;;;;;;;2190117;59;2694;-20
2023/12/05 08:30:25;;;;;;;;;;;;;;;;;;2190543;59;2491;-20
2023/12/05 08:32:58;;;;;;;;;;;;;;;;;;2189385;59;2739;-20
2023/12/05 08:35:28;;;;;;;;;;;;;;;;;;2189040;59;2694;-21
2023/12/05 08:37:59;;;;;;;;;;;;;;;;;;2190293;67;1869;-21
2023/12/05 08:40:29;;;;;;;;;;;;;;;;;;2187797;59;2036;-21
2023/12/05 08:42:59;;;;;;;;;;;;;;;;;;2190344;67;2531;-21
2023/12/05 08:45:29;;;;;;;;;;;;;;;;;;2189000;67;2467;-21
2023/12/05 08:48:00;;;;;;;;;;;;;;;;;;2189199;59;2481;-21
2023/12/05 08:50:30;;;;;;;;;;;;;;;;;;2191842;67;3316;-21
2023/12/05 08:53:01;;;;;;;;;;;;;;;;;;2188179;59;2831;-21
2023/12/05 08:55:31;;;;;;;;;;;;;;;;;;2190391;67;2559;-22
2023/12/05 08:58:02;;;;;;;;;;;;;;;;;;2191566;59;2682;-22
2023/12/05 09:00:32;;;;;;;;;;;;;;;;;;2189430;67;1868;-22
2023/12/05 09:03:03;;;;;;;;;;;;;;;;;;2189619;59;2820;-22
2023/12/05 09:05:35;;;;;;;;;;;;;;;;;;2188471;67;2680;-22
2023/12/05 09:08:05;;;;;;;;;;;;;;;;;;2187993;59;2237;-23
2023/12/05 09:10:36;;;;;;;;;;;;;;;;;;2190229;59;1896;-23
2023/12/05 09:13:06;;;;;;;;;;;;;;;;;;2189215;59;2538;-23
2023/12/05 09:15:37;;;;;;;;;;;;;;;;;;2188413;59;2519;-23
2023/12/05 09:18:07;;;;;;;;;;;;;;;;;;2204141;59;2580;-23
2023/12/05 09:20:38;;;;;;;;;;;;;;;;;;2200474;67;2640;-24
2023/12/05 09:23:08;;;;;;;;;;;;;;;;;;2189442;60;2141;-24
2023/12/05 09:25:38;;;;;;;;;;;;;;;;;;2188624;59;2502;-23
2023/12/05 09:28:09;;;;;;;;;;;;;;;;;;2190059;59;2838;-23
2023/12/05 09:30:39;;;;;;;;;;;;;;;;;;2191012;59;2479;-23
2023/12/05 09:33:09;;;;;;;;;;;;;;;;;;2189855;59;1951;-23
2023/12/05 09:35:39;;;;;;;;;;;;;;;;;;2189283;59;2076;-23
2023/12/05 09:38:10;;;;;;;;;;;;;;;;;;2204005;67;1922;-23
2023/12/05 09:40:40;;;;;;;;;;;;;;;;;;2203616;59;2371;-23
2023/12/05 09:43:11;;;;;;;;;;;;;;;;;;2189613;67;1847;-23
2023/12/05 09:45:43;;;;;;;;;;;;;;;;;;2189581;67;2760;-23
2023/12/05 09:48:16;;;;;;;;;;;;;;;;;;2189249;59;2684;-23
2023/12/05 09:50:47;;;;;;;;;;;;;;;;;;2189610;67;2023;-23
2023/12/05 09:53:18;;;;;;;;;;;;;;;;;;2187504;59;3232;-23
2023/12/05 09:55:49;;;;;;;;;;;;;;;;;;2188259;67;2620;-23
2023/12/05 09:58:21;;;;;;;;;;;;;;;;;;2188026;59;2389;-23
2023/12/05 10:00:52;;;;;;;;;;;;;;;;;;2189143;62;2086;-22
2023/12/05 10:03:23;;;;;;;;;;;;;;;;;;2189138;59;2502;-22
2023/12/05 10:05:55;;;;;;;;;;;;;;;;;;2187874;59;3606;-23
2023/12/05 10:08:25;;;;;;;;;;;;;;;;;;2188173;59;2258;-23
2023/12/05 10:10:59;;;;;;;;;;;;;;;;;;2188173;59;2226;-23
2023/12/05 10:13:30;;;;;;;;;;;;;;;;;;2188105;67;1859;-23
2023/12/05 10:16:01;;;;;;;;;;;;;;;;;;2189203;59;2824;-24
2023/12/05 10:18:31;;;;;;;;;;;;;;;;;;2188259;59;1844;-24
2023/12/05 10:21:02;;;;;;;;;;;;;;;;;;2187748;67;2469;-24
2023/12/05 10:23:33;;;;;;;;;;;;;;;;;;2190462;59;2583;-24
2023/12/05 10:26:03;;;;;;;;;;;;;;;;;;2192637;61;2626;-23
2023/12/05 10:28:47;;;;;;;;;;;;;;;;;;2191526;59;2320;-22
2023/12/05 10:31:18;;;;;;;;;;;;;;;;;;2191459;67;1923;-21
2023/12/05 10:33:49;;;;;;;;;;;;;;;;;;2188519;59;2660;-20
2023/12/05 10:36:20;;;;;;;;;;;;;;;;;;2188963;67;1895;-20
2023/12/05 10:38:50;;;;;;;;;;;;;;;;;;2187630;67;2489;-21
2023/12/05 10:41:23;;;;;;;;;;;;;;;;;;2188445;60;2321;-24
2023/12/05 10:43:55;;;;;;;;;;;;;;;;;;2202700;59;2787;-22
2023/12/05 10:46:27;;;;;;;;;;;;;;;;;;2188633;67;2844;-22
2023/12/05 10:48:57;;;;;;;;;;;;;;;;;;2185653;59;2260;-22
2023/12/05 10:51:27;;;;;;;;;;;;;;;;;;2192056;67;2393;-23
2023/12/05 10:53:58;;;;;;;;;;;;;;;;;;2187003;67;3270;-23
2023/12/05 10:56:29;;;;;;;;;;;;;;;;;;2186968;59;2311;-23
2023/12/05 10:59:00;;;;;;;;;;;;;;;;;;2188823;67;2361;-23
2023/12/05 11:01:33;;;;;;;;;;;;;;;;;;2190830;59;2497;-23
2023/12/05 11:04:05;;;;;;;;;;;;;;;;;;2188710;59;2608;-23
2023/12/05 11:06:35;;;;;;;;;;;;;;;;;;2186849;60;2191;-23
2023/12/05 11:09:06;;;;;;;;;;;;;;;;;;2188062;59;2077;-23
2023/12/05 11:11:40;;;;;;;;;;;;;;;;;;2186024;59;2223;-23
2023/12/05 11:14:11;;;;;;;;;;;;;;;;;;2188302;67;1787;-23
2023/12/05 11:16:49;;;;;;;;;;;;;;;;;;2187564;59;2479;-23
2023/12/05 11:19:31;;;;;;;;;;;;;;;;;;2189736;59;2630;-24
2023/12/05 11:22:12;;;;;;;;;;;;;;;;;;2191458;59;2598;-24
2023/12/05 11:25:01;;;;;;;;;;;;;;;;;;2188382;59;3505;-24
2023/12/05 11:27:34;;;;;;;;;;;;;;;;;;2188530;59;2961;-23
2023/12/05 11:30:25;;;;;;;;;;;;;;;;;;2188015;59;2389;-23
2023/12/05 11:33:12;;;;;;;;;;;;;;;;;;2191219;59;2296;-24
2023/12/05 11:36:01;;;;;;;;;;;;;;;;;;2187437;67;2309;-23
2023/12/05 11:38:32;;;;;;;;;;;;;;;;;;2187716;59;2067;-23
2023/12/05 11:41:17;;;;;;;;;;;;;;;;;;2203850;67;2733;-23
2023/12/05 11:44:06;;;;;;;;;;;;;;;;;;2188106;60;2435;-23
2023/12/05 11:46:36;;;;;;;;;;;;;;;;;;2187829;67;2361;-23
2023/12/05 11:49:06;;;;;;;;;;;;;;;;;;2204314;67;2587;-23
2023/12/05 11:51:37;;;;;;;;;;;;;;;;;;2188024;59;2165;-23
2023/12/05 11:54:07;;;;;;;;;;;;;;;;;;2189494;59;3114;-23
2023/12/05 11:56:37;;;;;;;;;;;;;;;;;;2187058;59;2665;-23
2023/12/05 11:59:13;;;;;;;;;;;;;;;;;;2189922;67;2509;-23
2023/12/05 12:01:45;;;;;;;;;;;;;;;;;;2187541;59;2469;-22
2023/12/05 12:04:19;;;;;;;;;;;;;;;;;;2189833;67;3225;-22
2023/12/05 12:06:49;;;;;;;;;;;;;;;;;;2187408;59;2296;-22
2023/12/05 12:09:20;;;;;;;;;;;;;;;;;;2189236;59;2300;-22
2023/12/05 12:11:50;;;;;;;;;;;;;;;;;;2188191;59;2171;-21
2023/12/05 12:14:20;;;;;;;;;;;;;;;;;;2189586;67;2642;-21
2023/12/05 12:16:51;;;;;;;;;;;;;;;;;;2187643;59;2450;-21
2023/12/05 12:19:21;;;;;;;;;;;;;;;;;;2189548;59;1918;-21
2023/12/05 12:21:51;;;;;;;;;;;;;;;;;;2188719;59;2611;-21
2023/12/05 12:24:23;;;;;;;;;;;;;;;;;;2187776;59;2501;-21
2023/12/05 12:26:57;;;;;;;;;;;;;;;;;;2188505;67;2593;-21
2023/12/05 12:29:28;;;;;;;;;;;;;;;;;;2188810;59;2330;-21
2023/12/05 12:32:10;;;;;;;;;;;;;;;;;;2190463;59;2219;-21
2023/12/05 12:34:44;;;;;;;;;;;;;;;;;;2188250;59;2954;-21
2023/12/05 12:37:14;;;;;;;;;;;;;;;;;;2192635;67;2799;-21
2023/12/05 12:39:45;;;;;;;;;;;;;;;;;;2188436;59;2740;-21
2023/12/05 12:42:16;;;;;;;;;;;;;;;;;;2189851;59;2001;-21
2023/12/05 12:44:46;;;;;;;;;;;;;;;;;;2191220;59;2578;-21
2023/12/05 12:47:17;;;;;;;;;;;;;;;;;;2188914;67;2152;-20
2023/12/05 12:49:47;;;;;;;;;;;;;;;;;;2191191;59;3029;-20
2023/12/05 12:52:18;;;;;;;;;;;;;;;;;;2188985;67;2242;-21
2023/12/05 12:54:50;;;;;;;;;;;;;;;;;;2189111;59;3065;-21
2023/12/05 12:57:21;;;;;;;;;;;;;;;;;;2188443;59;3715;-21
2023/12/05 12:59:56;;;;;;;;;;;;;;;;;;2188923;67;2404;-21
2023/12/05 13:02:30;;;;;;;;;;;;;;;;;;2188015;59;2590;-21
2023/12/05 13:05:00;;;;;;;;;;;;;;;;;;2188258;67;2820;-21
2023/12/05 13:07:31;;;;;;;;;;;;;;;;;;2188314;59;2563;-20
2023/12/05 13:10:03;;;;;;;;;;;;;;;;;;2188964;59;2237;-20
2023/12/05 13:12:34;;;;;;;;;;;;;;;;;;2188776;59;2234;-21
2023/12/05 13:15:05;;;;;;;;;;;;;;;;;;2185735;59;1805;-21
2023/12/05 13:17:35;;;;;;;;;;;;;;;;;;2188060;59;2906;-21
2023/12/05 13:20:08;;;;;;;;;;;;;;;;;;2189512;59;2602;-20
2023/12/05 13:22:38;;;;;;;;;;;;;;;;;;2187498;60;2675;-21
2023/12/05 13:25:09;;;;;;;;;;;;;;;;;;2192744;67;2083;-21
2023/12/05 13:27:39;;;;;;;;;;;;;;;;;;2188475;59;2465;-21
2023/12/05 13:30:14;;;;;;;;;;;;;;;;;;2189414;59;3271;-21
2023/12/05 13:32:45;;;;;;;;;;;;;;;;;;2187892;59;2263;-21
2023/12/05 13:35:15;;;;;;;;;;;;;;;;;;2202900;59;2505;-21
2023/12/05 13:37:46;;;;;;;;;;;;;;;;;;2186748;59;2143;-21
2023/12/05 13:40:16;;;;;;;;;;;;;;;;;;2188239;59;2180;-21
2023/12/05 13:42:46;;;;;;;;;;;;;;;;;;2188568;67;1840;-21
2023/12/05 13:45:17;;;;;;;;;;;;;;;;;;2201892;59;2608;-21
2023/12/05 13:47:47;;;;;;;;;;;;;;;;;;2188682;59;1945;-20
2023/12/05 13:50:19;;;;;;;;;;;;;;;;;;2203290;59;2321;-20
2023/12/05 13:52:49;;;;;;;;;;;;;;;;;;2187927;59;2766;-20
2023/12/05 13:55:19;;;;;;;;;;;;;;;;;;2188514;59;2547;-20
2023/12/05 13:57:49;;;;;;;;;;;;;;;;;;2186530;59;3001;-21
2023/12/05 14:00:19;;;;;;;;;;;;;;;;;;2188176;67;1891;-21
2023/12/05 14:02:50;;;;;;;;;;;;;;;;;;2189872;59;2605;-18
2023/12/05 14:05:20;;;;;;;;;;;;;;;;;;2189389;60;2373;-18
2023/12/05 14:07:50;;;;;;;;;;;;;;;;;;2187425;59;3027;-18
2023/12/05 14:10:21;;;;;;;;;;;;;;;;;;2188025;59;2273;-18
2023/12/05 14:12:51;;;;;;;;;;;;;;;;;;2187088;59;2331;-18
2023/12/05 14:15:21;;;;;;;;;;;;;;;;;;2188905;59;2277;-17
2023/12/05 14:17:51;;;;;;;;;;;;;;;;;;2188006;59;2516;-17
2023/12/05 14:20:22;;;;;;;;;;;;;;;;;;2191515;59;1832;-17
2023/12/05 14:22:52;;;;;;;;;;;;;;;;;;2189155;59;2491;-18
2023/12/05 14:25:23;;;;;;;;;;;;;;;;;;2188745;67;2984;-18
2023/12/05 14:27:54;;;;;;;;;;;;;;;;;;2187683;59;2327;-18
2023/12/05 14:30:24;;;;;;;;;;;;;;;;;;2188567;59;2268;-18
2023/12/05 14:32:54;;;;;;;;;;;;;;;;;;2191192;59;3154;-18
2023/12/05 14:35:24;;;;;;;;;;;;;;;;;;2189979;59;2744;-17
2023/12/05 14:37:55;;;;;;;;;;;;;;;;;;2203386;59;1823;-18
2023/12/05 14:40:25;;;;;;;;;;;;;;;;;;2189377;59;2610;-17
2023/12/05 14:42:55;;;;;;;;;;;;;;;;;;2190705;59;2651;-18
2023/12/05 14:45:26;;;;;;;;;;;;;;;;;;2189185;59;2658;-18
2023/12/05 14:47:56;;;;;;;;;;;;;;;;;;2185058;59;2392;-20
2023/12/05 14:50:26;;;;;;;;;;;;;;;;;;2187365;59;2895;-21
2023/12/05 14:52:56;;;;;;;;;;;;;;;;;;2187802;59;2676;-20
2023/12/05 14:55:27;;;;;;;;;;;;;;;;;;2188251;59;2035;-20
2023/12/05 14:57:58;;;;;;;;;;;;;;;;;;2185954;59;5029;-20
2023/12/05 15:00:28;;;;;;;;;;;;;;;;;;2190373;59;2558;-20
2023/12/05 15:02:58;;;;;;;;;;;;;;;;;;2187839;59;2925;-20
2023/12/05 15:05:29;;;;;;;;;;;;;;;;;;2188752;59;2478;-20
2023/12/05 15:07:59;;;;;;;;;;;;;;;;;;2187813;59;2198;-20
2023/12/05 15:10:29;;;;;;;;;;;;;;;;;;2188802;59;2203;-20
2023/12/05 15:13:00;;;;;;;;;;;;;;;;;;2188724;59;2971;-20
2023/12/05 15:15:31;;;;;;;;;;;;;;;;;;2189867;59;1941;-20
2023/12/05 15:18:01;;;;;;;;;;;;;;;;;;2189275;59;2476;-20
2023/12/05 15:20:32;;;;;;;;;;;;;;;;;;2192147;59;2439;-20
2023/12/05 15:23:02;;;;;;;;;;;;;;;;;;2189887;67;2058;-20
2023/12/05 15:25:32;;;;;;;;;;;;;;;;;;2189225;59;2475;-17
2023/12/05 15:28:03;;;;;;;;;;;;;;;;;;2189347;59;2095;-17
2023/12/05 15:30:33;;;;;;;;;;;;;;;;;;2188939;59;2684;-17
2023/12/05 15:33:03;;;;;;;;;;;;;;;;;;2190203;59;2275;-17
2023/12/05 15:35:34;;;;;;;;;;;;;;;;;;2188948;59;2836;-17
2023/12/05 15:38:04;;;;;;;;;;;;;;;;;;2188670;67;2252;-18
2023/12/05 15:40:34;;;;;;;;;;;;;;;;;;2188719;59;2181;-17
2023/12/05 15:43:04;;;;;;;;;;;;;;;;;;2188876;67;2164;-18
2023/12/05 15:45:35;;;;;;;;;;;;;;;;;;2191773;67;2391;-17
2023/12/05 15:48:08;;;;;;;;;;;;;;;;;;2188861;67;1815;-17
2023/12/05 15:50:38;;;;;;;;;;;;;;;;;;2188690;67;2371;-17
2023/12/05 15:53:09;;;;;;;;;;;;;;;;;;2205262;59;2567;-17
2023/12/05 15:55:39;;;;;;;;;;;;;;;;;;2189192;67;2613;-17
2023/12/05 15:58:09;;;;;;;;;;;;;;;;;;2187194;59;2789;-17
2023/12/05 16:00:41;;;;;;;;;;;;;;;;;;2188308;59;2824;-17
2023/12/05 16:03:11;;;;;;;;;;;;;;;;;;2192350;59;2503;-17
2023/12/05 16:05:42;;;;;;;;;;;;;;;;;;2191719;67;1934;-18
2023/12/05 16:08:12;;;;;;;;;;;;;;;;;;2188139;59;2370;-17
2023/12/05 16:10:45;;;;;;;;;;;;;;;;;;2191464;59;2088;-18
2023/12/05 16:13:15;;;;;;;;;;;;;;;;;;2191673;59;2504;-18
2023/12/05 16:15:46;;;;;;;;;;;;;;;;;;2188245;59;2961;-17
2023/12/05 16:18:16;;;;;;;;;;;;;;;;;;2189083;59;2614;-17
2023/12/05 16:20:48;;;;;;;;;;;;;;;;;;2187935;59;2171;-17
2023/12/05 16:23:18;;;;;;;;;;;;;;;;;;2191858;67;1997;-18
2023/12/05 16:25:49;;;;;;;;;;;;;;;;;;2189721;59;2597;-17
2023/12/05 16:28:19;;;;;;;;;;;;;;;;;;2189360;59;2053;-17
2023/12/05 16:30:49;;;;;;;;;;;;;;;;;;2187998;59;2116;-18
2023/12/05 16:33:19;;;;;;;;;;;;;;;;;;2189385;59;2448;-17
2023/12/05 16:35:50;;;;;;;;;;;;;;;;;;2187433;59;2371;-17
2023/12/05 16:38:21;;;;;;;;;;;;;;;;;;2188902;59;2546;-17
2023/12/05 16:40:52;;;;;;;;;;;;;;;;;;2187390;67;3395;-17
2023/12/05 16:43:22;;;;;;;;;;;;;;;;;;2192645;67;2490;-18
2023/12/05 16:45:53;;;;;;;;;;;;;;;;;;2187822;67;2011;-17
2023/12/05 16:48:23;;;;;;;;;;;;;;;;;;2190699;67;2706;-18
2023/12/05 16:50:54;;;;;;;;;;;;;;;;;;2188691;67;2810;-17
2023/12/05 16:53:24;;;;;;;;;;;;;;;;;;2189389;67;3110;-17
2023/12/05 16:55:55;;;;;;;;;;;;;;;;;;2188035;67;1915;-17
2023/12/05 16:58:25;;;;;;;;;;;;;;;;;;2185602;67;2512;-17
2023/12/05 17:00:55;;;;;;;;;;;;;;;;;;2187671;60;3335;-17
2023/12/05 17:03:26;;;;;;;;;;;;;;;;;;2189999;59;2558;-17
2023/12/05 17:05:56;;;;;;;;;;;;;;;;;;2187542;59;2391;-17
2023/12/05 17:08:26;;;;;;;;;;;;;;;;;;2188100;59;2070;-17
2023/12/05 17:10:57;;;;;;;;;;;;;;;;;;2189428;67;1929;-17
2023/12/05 17:13:27;;;;;;;;;;;;;;;;;;2188959;67;1826;-17
2023/12/05 17:15:57;;;;;;;;;;;;;;;;;;2188130;59;2331;-17
2023/12/05 17:18:27;;;;;;;;;;;;;;;;;;2189126;59;2533;-18
2023/12/05 17:20:58;;;;;;;;;;;;;;;;;;2188202;67;1834;-17
2023/12/05 17:23:29;;;;;;;;;;;;;;;;;;2202292;54;2014;-25
2023/12/05 17:26:00;;;;;;;;;;;;;;;;;;2205802;59;2149;-25
2023/12/05 17:28:30;;;;;;;;;;;;;;;;;;2208441;59;2024;-25
2023/12/05 17:31:04;;;;;;;;;;;;;;;;;;2202274;59;2497;-25